sensor_id;sensor_type;location;lat;lon;timestamp;temperature;humidity
3816;DHT22;1923;48.154;11.536;2022-09-03T00:00:34;16.10;99.90
3816;DHT22;1923;48.154;11.536;2022-09-03T00:03:07;16.30;99.90
3816;DHT22;1923;48.154;11.536;2022-09-03T00:05:39;16.30;99.90
3816;DHT22;1923;48.154;11.536;2022-09-03T00:08:11;16.10;99.90
3816;DHT22;1923;48.154;11.536;2022-09-03T00:10:45;16.10;99.90
3816;DHT22;1923;48.154;11.536;2022-09-03T00:13:32;16.20;99.90
3816;DHT22;1923;48.154;11.536;2022-09-03T00:16:04;16.20;99.90
3816;DHT22;1923;48.154;11.536;2022-09-03T00:18:40;16.20;99.90
3816;DHT22;1923;48.154;11.536;2022-09-03T00:21:14;16.30;99.90
3816;DHT22;1923;48.154;11.536;2022-09-03T00:23:43;16.30;99.90
3816;DHT22;1923;48.154;11.536;2022-09-03T00:26:22;16.20;99.90
3816;DHT22;1923;48.154;11.536;2022-09-03T00:28:57;16.30;99.90
3816;DHT22;1923;48.154;11.536;2022-09-03T00:31:29;16.10;99.90
3816;DHT22;1923;48.154;11.536;2022-09-03T00:34:03;16.20;99.90
3816;DHT22;1923;48.154;11.536;2022-09-03T00:36:36;16.10;99.90
3816;DHT22;1923;48.154;11.536;2022-09-03T00:39:09;16.20;99.90
3816;DHT22;1923;48.154;11.536;2022-09-03T00:41:51;16.20;99.90
3816;DHT22;1923;48.154;11.536;2022-09-03T00:44:35;16.10;99.90
3816;DHT22;1923;48.154;11.536;2022-09-03T00:47:11;16.10;99.90
3816;DHT22;1923;48.154;11.536;2022-09-03T00:49:48;15.80;99.90
3816;DHT22;1923;48.154;11.536;2022-09-03T00:52:33;15.90;99.90
3816;DHT22;1923;48.154;11.536;2022-09-03T00:55:10;15.90;99.90
3816;DHT22;1923;48.154;11.536;2022-09-03T00:57:48;15.90;99.90
3816;DHT22;1923;48.154;11.536;2022-09-03T01:00:20;15.80;99.90
3816;DHT22;1923;48.154;11.536;2022-09-03T01:03:00;15.80;99.90
3816;DHT22;1923;48.154;11.536;2022-09-03T01:05:42;15.60;99.90
3816;DHT22;1923;48.154;11.536;2022-09-03T01:08:30;15.70;99.90
3816;DHT22;1923;48.154;11.536;2022-09-03T01:11:08;15.70;99.90
3816;DHT22;1923;48.154;11.536;2022-09-03T01:13:50;15.70;99.90
3816;DHT22;1923;48.154;11.536;2022-09-03T01:16:26;15.80;99.90
3816;DHT22;1923;48.154;11.536;2022-09-03T01:19:04;15.70;99.90
3816;DHT22;1923;48.154;11.536;2022-09-03T01:22:02;15.80;99.90
3816;DHT22;1923;48.154;11.536;2022-09-03T01:27:38;15.80;99.90
3816;DHT22;1923;48.154;11.536;2022-09-03T01:30:12;15.50;99.90
3816;DHT22;1923;48.154;11.536;2022-09-03T01:32:51;15.80;99.90
3816;DHT22;1923;48.154;11.536;2022-09-03T01:35:32;15.70;99.90
3816;DHT22;1923;48.154;11.536;2022-09-03T01:38:11;15.80;99.90
3816;DHT22;1923;48.154;11.536;2022-09-03T01:40:50;15.80;99.90
3816;DHT22;1923;48.154;11.536;2022-09-03T01:43:50;15.80;99.90
3816;DHT22;1923;48.154;11.536;2022-09-03T01:46:24;15.60;99.90
3816;DHT22;1923;48.154;11.536;2022-09-03T01:49:00;15.60;99.90
3816;DHT22;1923;48.154;11.536;2022-09-03T01:51:33;15.50;99.90
3816;DHT22;1923;48.154;11.536;2022-09-03T01:54:37;15.50;99.90
3816;DHT22;1923;48.154;11.536;2022-09-03T01:57:41;15.40;99.90
3816;DHT22;1923;48.154;11.536;2022-09-03T02:00:14;15.30;99.90
3816;DHT22;1923;48.154;11.536;2022-09-03T02:02:47;15.30;99.90
3816;DHT22;1923;48.154;11.536;2022-09-03T02:05:20;15.20;99.90
3816;DHT22;1923;48.154;11.536;2022-09-03T02:07:59;15.30;99.90
3816;DHT22;1923;48.154;11.536;2022-09-03T02:10:33;15.40;99.90
3816;DHT22;1923;48.154;11.536;2022-09-03T02:13:08;15.20;99.90
3816;DHT22;1923;48.154;11.536;2022-09-03T02:15:41;15.20;99.90
3816;DHT22;1923;48.154;11.536;2022-09-03T02:18:17;15.20;99.90
3816;DHT22;1923;48.154;11.536;2022-09-03T02:20:48;15.10;99.90
3816;DHT22;1923;48.154;11.536;2022-09-03T02:23:16;14.90;99.90
3816;DHT22;1923;48.154;11.536;2022-09-03T02:25:54;15.00;99.90
3816;DHT22;1923;48.154;11.536;2022-09-03T02:28:25;14.80;99.90
3816;DHT22;1923;48.154;11.536;2022-09-03T02:30:54;14.90;99.90
3816;DHT22;1923;48.154;11.536;2022-09-03T02:33:24;15.00;99.90
3816;DHT22;1923;48.154;11.536;2022-09-03T02:35:55;15.00;99.90
3816;DHT22;1923;48.154;11.536;2022-09-03T02:38:25;15.00;99.90
3816;DHT22;1923;48.154;11.536;2022-09-03T02:40:54;15.10;99.90
3816;DHT22;1923;48.154;11.536;2022-09-03T02:43:25;15.20;99.90
3816;DHT22;1923;48.154;11.536;2022-09-03T02:45:58;15.10;99.90
3816;DHT22;1923;48.154;11.536;2022-09-03T02:48:31;15.10;99.90
3816;DHT22;1923;48.154;11.536;2022-09-03T02:51:06;14.90;99.90
3816;DHT22;1923;48.154;11.536;2022-09-03T02:53:40;14.90;99.90
3816;DHT22;1923;48.154;11.536;2022-09-03T02:56:09;15.00;99.90
3816;DHT22;1923;48.154;11.536;2022-09-03T02:58:39;15.00;99.90
3816;DHT22;1923;48.154;11.536;2022-09-03T03:01:07;14.90;99.90
3816;DHT22;1923;48.154;11.536;2022-09-03T03:03:41;15.00;99.90
3816;DHT22;1923;48.154;11.536;2022-09-03T03:06:10;14.90;99.90
3816;DHT22;1923;48.154;11.536;2022-09-03T03:08:39;15.00;99.90
3816;DHT22;1923;48.154;11.536;2022-09-03T03:11:07;14.90;99.90
3816;DHT22;1923;48.154;11.536;2022-09-03T03:13:37;14.90;99.90
3816;DHT22;1923;48.154;11.536;2022-09-03T03:16:09;14.80;99.90
3816;DHT22;1923;48.154;11.536;2022-09-03T03:18:38;14.90;99.90
3816;DHT22;1923;48.154;11.536;2022-09-03T03:21:09;14.90;99.90
3816;DHT22;1923;48.154;11.536;2022-09-03T03:23:38;14.80;99.90
3816;DHT22;1923;48.154;11.536;2022-09-03T03:26:08;14.80;99.90
3816;DHT22;1923;48.154;11.536;2022-09-03T03:28:37;14.90;99.90
3816;DHT22;1923;48.154;11.536;2022-09-03T03:31:05;14.80;99.90
3816;DHT22;1923;48.154;11.536;2022-09-03T03:33:34;14.80;99.90
3816;DHT22;1923;48.154;11.536;2022-09-03T03:36:04;14.90;99.90
3816;DHT22;1923;48.154;11.536;2022-09-03T03:38:34;14.90;99.90
3816;DHT22;1923;48.154;11.536;2022-09-03T03:41:06;14.90;99.90
3816;DHT22;1923;48.154;11.536;2022-09-03T03:43:35;14.80;99.90
3816;DHT22;1923;48.154;11.536;2022-09-03T03:46:03;14.80;99.90
3816;DHT22;1923;48.154;11.536;2022-09-03T03:48:31;14.80;99.90
3816;DHT22;1923;48.154;11.536;2022-09-03T03:54:55;14.80;99.90
3816;DHT22;1923;48.154;11.536;2022-09-03T03:57:44;14.70;99.90
3816;DHT22;1923;48.154;11.536;2022-09-03T04:00:31;14.60;99.90
3816;DHT22;1923;48.154;11.536;2022-09-03T04:03:05;14.70;99.90
3816;DHT22;1923;48.154;11.536;2022-09-03T04:05:41;14.50;99.90
3816;DHT22;1923;48.154;11.536;2022-09-03T04:08:14;14.40;99.90
3816;DHT22;1923;48.154;11.536;2022-09-03T04:10:59;14.50;99.90
3816;DHT22;1923;48.154;11.536;2022-09-03T04:13:40;14.60;99.90
3816;DHT22;1923;48.154;11.536;2022-09-03T04:16:17;14.60;99.90
3816;DHT22;1923;48.154;11.536;2022-09-03T04:18:56;14.60;99.90
3816;DHT22;1923;48.154;11.536;2022-09-03T04:21:30;14.70;99.90
3816;DHT22;1923;48.154;11.536;2022-09-03T04:24:14;14.70;99.90
3816;DHT22;1923;48.154;11.536;2022-09-03T04:26:52;14.80;99.90
3816;DHT22;1923;48.154;11.536;2022-09-03T04:29:25;14.70;99.90
3816;DHT22;1923;48.154;11.536;2022-09-03T04:32:04;14.60;99.90
3816;DHT22;1923;48.154;11.536;2022-09-03T04:34:49;14.80;99.90
3816;DHT22;1923;48.154;11.536;2022-09-03T04:37:20;14.70;99.90
3816;DHT22;1923;48.154;11.536;2022-09-03T04:39:52;14.70;99.90
3816;DHT22;1923;48.154;11.536;2022-09-03T04:42:31;14.80;99.90
3816;DHT22;1923;48.154;11.536;2022-09-03T04:45:03;15.00;99.90
3816;DHT22;1923;48.154;11.536;2022-09-03T04:47:36;14.90;99.90
3816;DHT22;1923;48.154;11.536;2022-09-03T04:50:20;15.00;99.90
3816;DHT22;1923;48.154;11.536;2022-09-03T04:52:58;15.10;99.90
3816;DHT22;1923;48.154;11.536;2022-09-03T04:55:50;15.20;99.90
3816;DHT22;1923;48.154;11.536;2022-09-03T04:58:35;15.30;99.90
3816;DHT22;1923;48.154;11.536;2022-09-03T05:01:14;15.40;99.90
3816;DHT22;1923;48.154;11.536;2022-09-03T05:03:50;15.40;99.90
3816;DHT22;1923;48.154;11.536;2022-09-03T05:06:30;15.60;99.90
3816;DHT22;1923;48.154;11.536;2022-09-03T05:08:59;15.70;99.90
3816;DHT22;1923;48.154;11.536;2022-09-03T05:11:28;15.70;99.90
3816;DHT22;1923;48.154;11.536;2022-09-03T05:13:58;15.70;99.90
3816;DHT22;1923;48.154;11.536;2022-09-03T05:16:27;15.80;99.90
3816;DHT22;1923;48.154;11.536;2022-09-03T05:18:58;15.90;99.90
3816;DHT22;1923;48.154;11.536;2022-09-03T05:21:27;16.00;99.90
3816;DHT22;1923;48.154;11.536;2022-09-03T05:23:55;16.10;99.90
3816;DHT22;1923;48.154;11.536;2022-09-03T05:26:25;16.20;99.90
3816;DHT22;1923;48.154;11.536;2022-09-03T05:28:56;16.10;99.90
3816;DHT22;1923;48.154;11.536;2022-09-03T05:31:27;16.10;99.90
3816;DHT22;1923;48.154;11.536;2022-09-03T05:34:00;16.10;99.90
3816;DHT22;1923;48.154;11.536;2022-09-03T05:36:30;16.00;99.90
3816;DHT22;1923;48.154;11.536;2022-09-03T05:38:59;16.10;99.90
3816;DHT22;1923;48.154;11.536;2022-09-03T05:41:28;16.10;99.90
3816;DHT22;1923;48.154;11.536;2022-09-03T05:43:56;16.30;99.90
3816;DHT22;1923;48.154;11.536;2022-09-03T05:46:28;16.40;99.90
3816;DHT22;1923;48.154;11.536;2022-09-03T05:48:59;16.50;99.90
3816;DHT22;1923;48.154;11.536;2022-09-03T05:51:28;16.60;99.90
3816;DHT22;1923;48.154;11.536;2022-09-03T05:53:58;16.60;99.90
3816;DHT22;1923;48.154;11.536;2022-09-03T05:56:27;16.60;99.90
3816;DHT22;1923;48.154;11.536;2022-09-03T05:58:57;16.30;99.90
3816;DHT22;1923;48.154;11.536;2022-09-03T06:01:31;16.40;99.90
3816;DHT22;1923;48.154;11.536;2022-09-03T06:04:00;16.50;99.90
3816;DHT22;1923;48.154;11.536;2022-09-03T06:06:30;16.50;99.90
3816;DHT22;1923;48.154;11.536;2022-09-03T06:09:00;16.50;99.90
3816;DHT22;1923;48.154;11.536;2022-09-03T06:11:30;16.70;99.90
3816;DHT22;1923;48.154;11.536;2022-09-03T06:14:00;16.70;99.90
3816;DHT22;1923;48.154;11.536;2022-09-03T06:16:33;16.70;99.90
3816;DHT22;1923;48.154;11.536;2022-09-03T06:19:02;16.90;99.90
3816;DHT22;1923;48.154;11.536;2022-09-03T06:21:31;17.10;99.90
3816;DHT22;1923;48.154;11.536;2022-09-03T06:24:00;17.10;99.90
3816;DHT22;1923;48.154;11.536;2022-09-03T06:26:28;17.00;99.90
3816;DHT22;1923;48.154;11.536;2022-09-03T06:28:57;17.10;99.90
3816;DHT22;1923;48.154;11.536;2022-09-03T06:31:26;17.20;99.90
3816;DHT22;1923;48.154;11.536;2022-09-03T06:33:55;17.10;99.90
3816;DHT22;1923;48.154;11.536;2022-09-03T06:36:29;17.20;99.90
3816;DHT22;1923;48.154;11.536;2022-09-03T06:38:58;17.30;99.90
3816;DHT22;1923;48.154;11.536;2022-09-03T06:41:28;17.40;99.90
3816;DHT22;1923;48.154;11.536;2022-09-03T06:43:59;17.40;99.90
3816;DHT22;1923;48.154;11.536;2022-09-03T06:46:29;17.30;99.90
3816;DHT22;1923;48.154;11.536;2022-09-03T06:48:59;17.30;99.90
3816;DHT22;1923;48.154;11.536;2022-09-03T06:51:29;17.20;99.90
3816;DHT22;1923;48.154;11.536;2022-09-03T06:53:59;17.40;99.90
3816;DHT22;1923;48.154;11.536;2022-09-03T06:56:28;17.40;99.90
3816;DHT22;1923;48.154;11.536;2022-09-03T06:59:04;17.40;99.90
3816;DHT22;1923;48.154;11.536;2022-09-03T07:01:33;17.30;99.90
3816;DHT22;1923;48.154;11.536;2022-09-03T07:04:04;17.40;99.90
3816;DHT22;1923;48.154;11.536;2022-09-03T07:06:34;17.30;99.90
3816;DHT22;1923;48.154;11.536;2022-09-03T07:09:04;17.40;99.90
3816;DHT22;1923;48.154;11.536;2022-09-03T07:11:33;17.30;99.90
3816;DHT22;1923;48.154;11.536;2022-09-03T07:14:02;17.40;99.90
3816;DHT22;1923;48.154;11.536;2022-09-03T07:16:33;17.40;99.90
3816;DHT22;1923;48.154;11.536;2022-09-03T07:19:01;17.40;99.90
3816;DHT22;1923;48.154;11.536;2022-09-03T07:21:32;17.40;99.90
3816;DHT22;1923;48.154;11.536;2022-09-03T07:24:03;17.30;99.90
3816;DHT22;1923;48.154;11.536;2022-09-03T07:26:33;17.30;99.90
3816;DHT22;1923;48.154;11.536;2022-09-03T07:29:02;17.40;99.90
3816;DHT22;1923;48.154;11.536;2022-09-03T07:31:32;17.50;99.90
3816;DHT22;1923;48.154;11.536;2022-09-03T07:34:02;17.50;99.90
3816;DHT22;1923;48.154;11.536;2022-09-03T07:36:38;17.60;99.90
3816;DHT22;1923;48.154;11.536;2022-09-03T07:39:08;17.60;99.90
3816;DHT22;1923;48.154;11.536;2022-09-03T07:41:37;17.60;99.90
3816;DHT22;1923;48.154;11.536;2022-09-03T07:44:09;17.50;99.90
3816;DHT22;1923;48.154;11.536;2022-09-03T07:46:37;17.50;99.90
3816;DHT22;1923;48.154;11.536;2022-09-03T07:49:06;17.50;99.90
3816;DHT22;1923;48.154;11.536;2022-09-03T07:51:37;17.60;99.90
3816;DHT22;1923;48.154;11.536;2022-09-03T07:54:07;17.60;99.90
3816;DHT22;1923;48.154;11.536;2022-09-03T07:56:38;17.50;99.90
3816;DHT22;1923;48.154;11.536;2022-09-03T07:59:07;17.60;99.90
3816;DHT22;1923;48.154;11.536;2022-09-03T08:01:37;17.60;99.90
3816;DHT22;1923;48.154;11.536;2022-09-03T08:04:07;17.50;99.90
3816;DHT22;1923;48.154;11.536;2022-09-03T08:06:38;17.50;99.90
3816;DHT22;1923;48.154;11.536;2022-09-03T08:09:09;17.60;99.90
3816;DHT22;1923;48.154;11.536;2022-09-03T08:11:40;17.50;99.90
3816;DHT22;1923;48.154;11.536;2022-09-03T08:14:11;17.60;99.90
3816;DHT22;1923;48.154;11.536;2022-09-03T08:16:41;17.60;99.90
3816;DHT22;1923;48.154;11.536;2022-09-03T08:19:10;17.70;99.90
3816;DHT22;1923;48.154;11.536;2022-09-03T08:21:40;17.70;99.90
3816;DHT22;1923;48.154;11.536;2022-09-03T08:24:10;17.80;99.90
3816;DHT22;1923;48.154;11.536;2022-09-03T08:26:39;18.00;99.90
3816;DHT22;1923;48.154;11.536;2022-09-03T08:29:13;18.20;99.90
3816;DHT22;1923;48.154;11.536;2022-09-03T08:31:42;18.40;99.90
3816;DHT22;1923;48.154;11.536;2022-09-03T08:34:12;18.60;99.90
3816;DHT22;1923;48.154;11.536;2022-09-03T08:36:44;18.80;99.90
3816;DHT22;1923;48.154;11.536;2022-09-03T08:39:13;18.90;99.90
3816;DHT22;1923;48.154;11.536;2022-09-03T08:41:54;19.00;99.90
3816;DHT22;1923;48.154;11.536;2022-09-03T08:44:29;19.20;99.90
3816;DHT22;1923;48.154;11.536;2022-09-03T08:47:01;19.20;99.90
3816;DHT22;1923;48.154;11.536;2022-09-03T08:49:37;19.30;99.90
3816;DHT22;1923;48.154;11.536;2022-09-03T08:52:27;19.40;99.90
3816;DHT22;1923;48.154;11.536;2022-09-03T08:55:02;19.60;99.90
3816;DHT22;1923;48.154;11.536;2022-09-03T08:57:36;19.80;99.90
3816;DHT22;1923;48.154;11.536;2022-09-03T09:00:08;20.00;99.90
3816;DHT22;1923;48.154;11.536;2022-09-03T09:02:48;20.20;99.90
3816;DHT22;1923;48.154;11.536;2022-09-03T09:05:22;20.40;99.90
3816;DHT22;1923;48.154;11.536;2022-09-03T09:08:00;20.80;99.90
3816;DHT22;1923;48.154;11.536;2022-09-03T09:10:34;21.10;99.90
3816;DHT22;1923;48.154;11.536;2022-09-03T09:13:11;21.50;99.90
3816;DHT22;1923;48.154;11.536;2022-09-03T09:15:49;21.50;99.90
3816;DHT22;1923;48.154;11.536;2022-09-03T09:18:24;21.40;99.90
3816;DHT22;1923;48.154;11.536;2022-09-03T09:21:01;21.60;99.90
3816;DHT22;1923;48.154;11.536;2022-09-03T09:23:39;21.70;99.90
3816;DHT22;1923;48.154;11.536;2022-09-03T09:26:10;21.80;99.90
3816;DHT22;1923;48.154;11.536;2022-09-03T09:28:39;22.10;99.90
3816;DHT22;1923;48.154;11.536;2022-09-03T09:31:09;22.20;99.90
3816;DHT22;1923;48.154;11.536;2022-09-03T09:33:41;22.50;99.90
3816;DHT22;1923;48.154;11.536;2022-09-03T09:36:11;23.00;99.90
3816;DHT22;1923;48.154;11.536;2022-09-03T09:38:43;23.10;99.90
3816;DHT22;1923;48.154;11.536;2022-09-03T09:41:13;23.20;99.90
3816;DHT22;1923;48.154;11.536;2022-09-03T09:43:42;23.50;99.90
3816;DHT22;1923;48.154;11.536;2022-09-03T09:46:13;23.40;99.90
3816;DHT22;1923;48.154;11.536;2022-09-03T09:48:48;23.70;99.90
3816;DHT22;1923;48.154;11.536;2022-09-03T09:51:21;24.10;99.90
3816;DHT22;1923;48.154;11.536;2022-09-03T09:54:02;24.80;99.90
3816;DHT22;1923;48.154;11.536;2022-09-03T09:56:30;25.00;99.90
3816;DHT22;1923;48.154;11.536;2022-09-03T09:59:03;25.10;99.90
3816;DHT22;1923;48.154;11.536;2022-09-03T10:01:32;25.00;99.90
3816;DHT22;1923;48.154;11.536;2022-09-03T10:04:08;24.80;99.90
3816;DHT22;1923;48.154;11.536;2022-09-03T10:06:37;24.70;99.90
3816;DHT22;1923;48.154;11.536;2022-09-03T10:09:27;24.90;99.90
3816;DHT22;1923;48.154;11.536;2022-09-03T10:12:08;24.90;99.90
3816;DHT22;1923;48.154;11.536;2022-09-03T10:14:46;24.90;99.90
3816;DHT22;1923;48.154;11.536;2022-09-03T10:17:29;24.70;99.90
3816;DHT22;1923;48.154;11.536;2022-09-03T10:20:09;24.70;99.90
3816;DHT22;1923;48.154;11.536;2022-09-03T10:23:07;24.60;99.90
3816;DHT22;1923;48.154;11.536;2022-09-03T10:25:47;24.50;99.90
3816;DHT22;1923;48.154;11.536;2022-09-03T10:28:27;24.50;99.90
3816;DHT22;1923;48.154;11.536;2022-09-03T10:31:14;24.70;99.90
3816;DHT22;1923;48.154;11.536;2022-09-03T10:33:59;25.00;99.90
3816;DHT22;1923;48.154;11.536;2022-09-03T10:36:39;26.00;99.90
3816;DHT22;1923;48.154;11.536;2022-09-03T10:39:21;27.10;99.90
3816;DHT22;1923;48.154;11.536;2022-09-03T10:42:04;27.60;99.90
3816;DHT22;1923;48.154;11.536;2022-09-03T10:44:55;27.50;99.90
3816;DHT22;1923;48.154;11.536;2022-09-03T10:48:01;27.40;99.90
3816;DHT22;1923;48.154;11.536;2022-09-03T10:50:45;28.20;99.90
3816;DHT22;1923;48.154;11.536;2022-09-03T10:53:38;28.50;99.60
3816;DHT22;1923;48.154;11.536;2022-09-03T10:56:21;28.40;98.70
3816;DHT22;1923;48.154;11.536;2022-09-03T10:59:22;28.30;98.90
3816;DHT22;1923;48.154;11.536;2022-09-03T11:02:01;28.90;98.50
3816;DHT22;1923;48.154;11.536;2022-09-03T11:04:41;29.00;96.70
3816;DHT22;1923;48.154;11.536;2022-09-03T11:07:13;29.00;96.20
3816;DHT22;1923;48.154;11.536;2022-09-03T11:09:52;29.20;96.30
3816;DHT22;1923;48.154;11.536;2022-09-03T11:12:28;29.10;95.50
3816;DHT22;1923;48.154;11.536;2022-09-03T11:15:13;29.20;95.60
3816;DHT22;1923;48.154;11.536;2022-09-03T11:17:55;28.90;96.00
3816;DHT22;1923;48.154;11.536;2022-09-03T11:20:35;28.60;95.90
3816;DHT22;1923;48.154;11.536;2022-09-03T11:23:10;28.20;96.70
3816;DHT22;1923;48.154;11.536;2022-09-03T11:25:50;27.90;96.10
3816;DHT22;1923;48.154;11.536;2022-09-03T11:28:47;27.30;96.60
3816;DHT22;1923;48.154;11.536;2022-09-03T11:31:45;26.80;96.90
3816;DHT22;1923;48.154;11.536;2022-09-03T11:34:30;26.50;97.70
3816;DHT22;1923;48.154;11.536;2022-09-03T11:37:26;26.40;97.90
3816;DHT22;1923;48.154;11.536;2022-09-03T11:40:05;26.60;97.60
3816;DHT22;1923;48.154;11.536;2022-09-03T11:42:35;26.60;97.90
3816;DHT22;1923;48.154;11.536;2022-09-03T11:45:22;26.70;97.80
3816;DHT22;1923;48.154;11.536;2022-09-03T11:48:10;26.70;97.20
3816;DHT22;1923;48.154;11.536;2022-09-03T11:50:54;26.70;98.00
3816;DHT22;1923;48.154;11.536;2022-09-03T11:53:33;26.60;97.80
3816;DHT22;1923;48.154;11.536;2022-09-03T11:56:17;26.60;98.40
3816;DHT22;1923;48.154;11.536;2022-09-03T11:59:03;26.50;98.00
3816;DHT22;1923;48.154;11.536;2022-09-03T12:01:44;26.30;97.40
3816;DHT22;1923;48.154;11.536;2022-09-03T12:04:32;25.90;97.50
3816;DHT22;1923;48.154;11.536;2022-09-03T12:07:39;25.70;97.80
3816;DHT22;1923;48.154;11.536;2022-09-03T12:10:33;25.60;98.20
3816;DHT22;1923;48.154;11.536;2022-09-03T12:13:29;25.50;98.70
3816;DHT22;1923;48.154;11.536;2022-09-03T12:16:33;25.40;98.80
3816;DHT22;1923;48.154;11.536;2022-09-03T12:19:08;25.30;99.60
3816;DHT22;1923;48.154;11.536;2022-09-03T12:21:46;25.40;99.50
3816;DHT22;1923;48.154;11.536;2022-09-03T12:24:25;25.30;99.50
3816;DHT22;1923;48.154;11.536;2022-09-03T12:27:06;25.20;99.70
3816;DHT22;1923;48.154;11.536;2022-09-03T12:29:55;25.20;99.60
3816;DHT22;1923;48.154;11.536;2022-09-03T12:32:32;25.10;99.90
3816;DHT22;1923;48.154;11.536;2022-09-03T12:35:11;24.80;99.80
3816;DHT22;1923;48.154;11.536;2022-09-03T12:38:02;24.60;99.70
3816;DHT22;1923;48.154;11.536;2022-09-03T12:40:33;24.60;99.80
3816;DHT22;1923;48.154;11.536;2022-09-03T12:43:27;24.60;99.90
3816;DHT22;1923;48.154;11.536;2022-09-03T12:46:12;24.50;99.90
3816;DHT22;1923;48.154;11.536;2022-09-03T12:48:51;24.40;99.90
3816;DHT22;1923;48.154;11.536;2022-09-03T12:51:41;24.40;99.90
3816;DHT22;1923;48.154;11.536;2022-09-03T12:54:20;24.50;99.90
3816;DHT22;1923;48.154;11.536;2022-09-03T12:56:53;24.50;99.90
3816;DHT22;1923;48.154;11.536;2022-09-03T12:59:23;24.60;99.90
3816;DHT22;1923;48.154;11.536;2022-09-03T13:01:57;24.70;99.90
3816;DHT22;1923;48.154;11.536;2022-09-03T13:04:30;24.60;99.90
3816;DHT22;1923;48.154;11.536;2022-09-03T13:07:02;24.70;99.90
3816;DHT22;1923;48.154;11.536;2022-09-03T13:09:35;24.80;99.90
3816;DHT22;1923;48.154;11.536;2022-09-03T13:12:04;24.70;99.90
3816;DHT22;1923;48.154;11.536;2022-09-03T13:14:42;24.70;99.90
3816;DHT22;1923;48.154;11.536;2022-09-03T13:17:24;24.70;99.90
3816;DHT22;1923;48.154;11.536;2022-09-03T13:20:19;24.70;99.90
3816;DHT22;1923;48.154;11.536;2022-09-03T13:23:01;24.60;99.90
3816;DHT22;1923;48.154;11.536;2022-09-03T13:25:40;24.50;99.90
3816;DHT22;1923;48.154;11.536;2022-09-03T13:28:22;24.70;99.80
3816;DHT22;1923;48.154;11.536;2022-09-03T13:30:57;24.80;99.70
3816;DHT22;1923;48.154;11.536;2022-09-03T13:33:33;25.00;99.60
3816;DHT22;1923;48.154;11.536;2022-09-03T13:36:09;25.10;99.70
3816;DHT22;1923;48.154;11.536;2022-09-03T13:38:48;25.20;99.60
3816;DHT22;1923;48.154;11.536;2022-09-03T13:41:29;25.10;99.20
3816;DHT22;1923;48.154;11.536;2022-09-03T13:44:07;25.00;99.50
3816;DHT22;1923;48.154;11.536;2022-09-03T13:46:42;24.90;99.60
3816;DHT22;1923;48.154;11.536;2022-09-03T13:49:25;24.70;99.90
3816;DHT22;1923;48.154;11.536;2022-09-03T13:52:17;24.70;99.90
3816;DHT22;1923;48.154;11.536;2022-09-03T13:54:52;24.70;99.90
3816;DHT22;1923;48.154;11.536;2022-09-03T13:57:36;24.80;99.90
3816;DHT22;1923;48.154;11.536;2022-09-03T14:00:07;24.80;99.90
3816;DHT22;1923;48.154;11.536;2022-09-03T14:02:49;24.70;99.90
3816;DHT22;1923;48.154;11.536;2022-09-03T14:05:30;24.60;99.90
3816;DHT22;1923;48.154;11.536;2022-09-03T14:08:06;24.60;99.90
3816;DHT22;1923;48.154;11.536;2022-09-03T14:10:51;24.60;99.90
3816;DHT22;1923;48.154;11.536;2022-09-03T14:13:29;24.50;99.90
3816;DHT22;1923;48.154;11.536;2022-09-03T14:16:06;24.50;99.90
3816;DHT22;1923;48.154;11.536;2022-09-03T14:18:40;24.40;99.90
3816;DHT22;1923;48.154;11.536;2022-09-03T14:21:15;24.30;99.90
3816;DHT22;1923;48.154;11.536;2022-09-03T14:23:50;24.20;99.90
3816;DHT22;1923;48.154;11.536;2022-09-03T14:26:27;24.00;99.90
3816;DHT22;1923;48.154;11.536;2022-09-03T14:29:14;23.70;99.90
3816;DHT22;1923;48.154;11.536;2022-09-03T14:32:08;23.10;99.90
3816;DHT22;1923;48.154;11.536;2022-09-03T14:34:53;22.20;99.90
3816;DHT22;1923;48.154;11.536;2022-09-03T14:37:44;21.20;99.90
3816;DHT22;1923;48.154;11.536;2022-09-03T14:40:16;20.40;99.90
3816;DHT22;1923;48.154;11.536;2022-09-03T14:43:04;19.70;99.90
3816;DHT22;1923;48.154;11.536;2022-09-03T14:46:03;19.20;99.90
3816;DHT22;1923;48.154;11.536;2022-09-03T14:48:47;18.90;99.90
3816;DHT22;1923;48.154;11.536;2022-09-03T14:51:30;18.60;99.90
3816;DHT22;1923;48.154;11.536;2022-09-03T14:57:16;18.30;99.90
3816;DHT22;1923;48.154;11.536;2022-09-03T14:59:59;18.20;99.90
3816;DHT22;1923;48.154;11.536;2022-09-03T15:06:03;18.00;99.90
3816;DHT22;1923;48.154;11.536;2022-09-03T15:08:49;17.90;99.90
3816;DHT22;1923;48.154;11.536;2022-09-03T15:11:27;17.80;99.90
3816;DHT22;1923;48.154;11.536;2022-09-03T15:14:04;17.90;99.90
3816;DHT22;1923;48.154;11.536;2022-09-03T15:16:45;18.00;99.90
3816;DHT22;1923;48.154;11.536;2022-09-03T15:19:45;18.10;99.90
3816;DHT22;1923;48.154;11.536;2022-09-03T15:22:32;17.80;99.90
3816;DHT22;1923;48.154;11.536;2022-09-03T15:25:20;17.80;99.90
3816;DHT22;1923;48.154;11.536;2022-09-03T15:28:10;17.90;99.90
3816;DHT22;1923;48.154;11.536;2022-09-03T15:30:50;17.80;99.90
3816;DHT22;1923;48.154;11.536;2022-09-03T15:33:31;17.90;99.90
3816;DHT22;1923;48.154;11.536;2022-09-03T15:36:14;17.70;99.90
3816;DHT22;1923;48.154;11.536;2022-09-03T15:38:55;17.60;99.90
3816;DHT22;1923;48.154;11.536;2022-09-03T15:41:34;17.50;99.90
3816;DHT22;1923;48.154;11.536;2022-09-03T15:44:18;17.50;99.90
3816;DHT22;1923;48.154;11.536;2022-09-03T15:46:53;17.60;99.90
3816;DHT22;1923;48.154;11.536;2022-09-03T15:49:46;17.50;99.90
3816;DHT22;1923;48.154;11.536;2022-09-03T15:52:29;17.60;99.90
3816;DHT22;1923;48.154;11.536;2022-09-03T15:55:09;17.50;99.90
3816;DHT22;1923;48.154;11.536;2022-09-03T15:57:45;17.40;99.90
3816;DHT22;1923;48.154;11.536;2022-09-03T16:00:18;17.60;99.90
3816;DHT22;1923;48.154;11.536;2022-09-03T16:02:52;17.70;99.90
3816;DHT22;1923;48.154;11.536;2022-09-03T16:05:34;17.80;99.90
3816;DHT22;1923;48.154;11.536;2022-09-03T16:08:12;17.90;99.90
3816;DHT22;1923;48.154;11.536;2022-09-03T16:10:51;17.90;99.90
3816;DHT22;1923;48.154;11.536;2022-09-03T16:16:18;18.00;99.90
3816;DHT22;1923;48.154;11.536;2022-09-03T16:18:56;18.00;99.90
3816;DHT22;1923;48.154;11.536;2022-09-03T16:21:35;18.20;99.90
3816;DHT22;1923;48.154;11.536;2022-09-03T16:24:12;18.30;99.90
3816;DHT22;1923;48.154;11.536;2022-09-03T16:26:50;18.40;99.90
3816;DHT22;1923;48.154;11.536;2022-09-03T16:29:25;18.40;99.90
3816;DHT22;1923;48.154;11.536;2022-09-03T16:32:20;18.50;99.90
3816;DHT22;1923;48.154;11.536;2022-09-03T16:35:06;18.50;99.90
3816;DHT22;1923;48.154;11.536;2022-09-03T16:37:46;18.50;99.90
3816;DHT22;1923;48.154;11.536;2022-09-03T16:40:20;18.40;99.90
3816;DHT22;1923;48.154;11.536;2022-09-03T16:42:59;18.40;99.90
3816;DHT22;1923;48.154;11.536;2022-09-03T16:45:58;18.40;99.90
3816;DHT22;1923;48.154;11.536;2022-09-03T16:48:34;18.40;99.90
3816;DHT22;1923;48.154;11.536;2022-09-03T16:51:09;18.40;99.90
3816;DHT22;1923;48.154;11.536;2022-09-03T16:54:00;18.30;99.90
3816;DHT22;1923;48.154;11.536;2022-09-03T16:56:45;18.10;99.90
3816;DHT22;1923;48.154;11.536;2022-09-03T16:59:30;18.10;99.90
3816;DHT22;1923;48.154;11.536;2022-09-03T17:02:14;18.10;99.90